sensor_id;sensor_type;location;lat;lon;timestamp;temperature;humidity
40702;DHT22;26387;50.114;8.662;2022-10-10T00:01:09;12.70;78.40
40702;DHT22;26387;50.114;8.662;2022-10-10T00:03:35;12.70;78.40
40702;DHT22;26387;50.114;8.662;2022-10-10T00:06:00;12.70;78.50
40702;DHT22;26387;50.114;8.662;2022-10-10T00:08:26;12.70;78.60
40702;DHT22;26387;50.114;8.662;2022-10-10T00:10:51;12.70;78.70
40702;DHT22;26387;50.114;8.662;2022-10-10T00:13:17;12.60;78.80
40702;DHT22;26387;50.114;8.662;2022-10-10T00:15:42;12.70;78.90
40702;DHT22;26387;50.114;8.662;2022-10-10T00:18:08;12.60;78.90
40702;DHT22;26387;50.114;8.662;2022-10-10T00:20:34;12.60;79.10
40702;DHT22;26387;50.114;8.662;2022-10-10T00:22:59;12.60;79.20
40702;DHT22;26387;50.114;8.662;2022-10-10T00:25:25;12.60;79.10
40702;DHT22;26387;50.114;8.662;2022-10-10T00:27:52;12.50;79.60
40702;DHT22;26387;50.114;8.662;2022-10-10T00:30:18;12.50;79.50
40702;DHT22;26387;50.114;8.662;2022-10-10T00:32:43;12.40;79.90
40702;DHT22;26387;50.114;8.662;2022-10-10T00:35:09;12.40;80.00
40702;DHT22;26387;50.114;8.662;2022-10-10T00:37:34;12.40;80.00
40702;DHT22;26387;50.114;8.662;2022-10-10T00:40:00;12.40;80.00
40702;DHT22;26387;50.114;8.662;2022-10-10T00:42:26;12.40;80.00
40702;DHT22;26387;50.114;8.662;2022-10-10T00:47:35;12.40;80.10
40702;DHT22;26387;50.114;8.662;2022-10-10T00:50:01;12.40;80.20
40702;DHT22;26387;50.114;8.662;2022-10-10T00:52:28;12.40;80.40
40702;DHT22;26387;50.114;8.662;2022-10-10T00:54:53;12.40;80.40
40702;DHT22;26387;50.114;8.662;2022-10-10T00:57:19;12.30;80.70
40702;DHT22;26387;50.114;8.662;2022-10-10T00:59:44;12.30;80.60
40702;DHT22;26387;50.114;8.662;2022-10-10T01:02:10;12.30;80.80
40702;DHT22;26387;50.114;8.662;2022-10-10T01:04:37;12.30;80.70
40702;DHT22;26387;50.114;8.662;2022-10-10T01:07:05;12.30;80.80
40702;DHT22;26387;50.114;8.662;2022-10-10T01:09:32;12.30;80.80
40702;DHT22;26387;50.114;8.662;2022-10-10T01:13:00;12.30;80.90
40702;DHT22;26387;50.114;8.662;2022-10-10T01:14:57;12.30;81.10
40702;DHT22;26387;50.114;8.662;2022-10-10T01:17:29;12.30;81.30
40702;DHT22;26387;50.114;8.662;2022-10-10T01:22:27;12.20;81.50
40702;DHT22;26387;50.114;8.662;2022-10-10T01:24:58;12.10;82.00
40702;DHT22;26387;50.114;8.662;2022-10-10T01:27:37;12.20;82.00
40702;DHT22;26387;50.114;8.662;2022-10-10T01:30:06;12.10;82.00
40702;DHT22;26387;50.114;8.662;2022-10-10T01:35:20;12.20;82.10
40702;DHT22;26387;50.114;8.662;2022-10-10T01:42:53;12.10;82.40
40702;DHT22;26387;50.114;8.662;2022-10-10T01:45:20;12.10;82.50
40702;DHT22;26387;50.114;8.662;2022-10-10T01:47:46;12.10;83.20
40702;DHT22;26387;50.114;8.662;2022-10-10T01:50:13;12.10;82.60
40702;DHT22;26387;50.114;8.662;2022-10-10T01:52:47;12.10;82.70
40702;DHT22;26387;50.114;8.662;2022-10-10T02:00:13;12.10;83.10
40702;DHT22;26387;50.114;8.662;2022-10-10T02:05:26;12.00;83.20
40702;DHT22;26387;50.114;8.662;2022-10-10T02:07:59;12.00;83.30
40702;DHT22;26387;50.114;8.662;2022-10-10T02:10:28;12.00;83.30
40702;DHT22;26387;50.114;8.662;2022-10-10T02:12:55;11.90;83.30
40702;DHT22;26387;50.114;8.662;2022-10-10T02:15:22;12.00;83.40
40702;DHT22;26387;50.114;8.662;2022-10-10T02:17:49;12.00;83.50
40702;DHT22;26387;50.114;8.662;2022-10-10T02:20:17;12.00;83.60
40702;DHT22;26387;50.114;8.662;2022-10-10T02:22:43;12.00;83.70
40702;DHT22;26387;50.114;8.662;2022-10-10T02:25:09;12.00;83.70
40702;DHT22;26387;50.114;8.662;2022-10-10T02:30:04;11.90;83.70
40702;DHT22;26387;50.114;8.662;2022-10-10T02:32:31;12.00;83.80
40702;DHT22;26387;50.114;8.662;2022-10-10T02:34:58;11.90;83.90
40702;DHT22;26387;50.114;8.662;2022-10-10T02:37:24;11.90;84.10
40702;DHT22;26387;50.114;8.662;2022-10-10T02:39:52;11.90;84.10
40702;DHT22;26387;50.114;8.662;2022-10-10T02:42:19;11.90;84.20
40702;DHT22;26387;50.114;8.662;2022-10-10T02:44:46;11.90;84.40
40702;DHT22;26387;50.114;8.662;2022-10-10T02:47:12;11.90;84.50
40702;DHT22;26387;50.114;8.662;2022-10-10T02:49:38;11.90;84.50
40702;DHT22;26387;50.114;8.662;2022-10-10T02:52:04;11.90;84.80
40702;DHT22;26387;50.114;8.662;2022-10-10T02:54:30;11.80;84.80
40702;DHT22;26387;50.114;8.662;2022-10-10T02:56:56;11.90;85.00
40702;DHT22;26387;50.114;8.662;2022-10-10T02:59:21;11.80;85.00
40702;DHT22;26387;50.114;8.662;2022-10-10T03:01:47;11.80;85.00
40702;DHT22;26387;50.114;8.662;2022-10-10T03:04:12;11.80;85.00
40702;DHT22;26387;50.114;8.662;2022-10-10T03:06:38;11.80;85.00
40702;DHT22;26387;50.114;8.662;2022-10-10T03:09:04;11.80;85.30
40702;DHT22;26387;50.114;8.662;2022-10-10T03:11:29;11.80;85.30
40702;DHT22;26387;50.114;8.662;2022-10-10T03:13:55;11.80;85.60
40702;DHT22;26387;50.114;8.662;2022-10-10T03:16:20;11.80;85.70
40702;DHT22;26387;50.114;8.662;2022-10-10T03:18:46;11.80;85.40
40702;DHT22;26387;50.114;8.662;2022-10-10T03:21:11;11.80;85.30
40702;DHT22;26387;50.114;8.662;2022-10-10T03:23:37;11.80;85.30
40702;DHT22;26387;50.114;8.662;2022-10-10T03:26:02;11.70;85.30
40702;DHT22;26387;50.114;8.662;2022-10-10T03:28:28;11.80;85.40
40702;DHT22;26387;50.114;8.662;2022-10-10T03:30:54;11.70;85.50
40702;DHT22;26387;50.114;8.662;2022-10-10T03:33:20;11.70;85.60
40702;DHT22;26387;50.114;8.662;2022-10-10T03:35:46;11.70;85.50
40702;DHT22;26387;50.114;8.662;2022-10-10T03:38:11;11.70;85.50
40702;DHT22;26387;50.114;8.662;2022-10-10T03:40:38;11.70;85.60
40702;DHT22;26387;50.114;8.662;2022-10-10T03:43:05;11.60;85.60
40702;DHT22;26387;50.114;8.662;2022-10-10T03:45:30;11.60;85.50
40702;DHT22;26387;50.114;8.662;2022-10-10T03:47:56;11.60;85.60
40702;DHT22;26387;50.114;8.662;2022-10-10T03:50:21;11.50;85.80
40702;DHT22;26387;50.114;8.662;2022-10-10T03:52:47;11.50;86.00
40702;DHT22;26387;50.114;8.662;2022-10-10T03:55:12;11.50;86.00
40702;DHT22;26387;50.114;8.662;2022-10-10T03:57:37;11.50;86.00
40702;DHT22;26387;50.114;8.662;2022-10-10T04:00:03;11.50;86.20
40702;DHT22;26387;50.114;8.662;2022-10-10T04:02:29;11.50;86.00
40702;DHT22;26387;50.114;8.662;2022-10-10T04:04:54;11.50;86.50
40702;DHT22;26387;50.114;8.662;2022-10-10T04:07:20;11.40;86.30
40702;DHT22;26387;50.114;8.662;2022-10-10T04:09:45;11.40;86.20
40702;DHT22;26387;50.114;8.662;2022-10-10T04:12:10;11.40;86.20
40702;DHT22;26387;50.114;8.662;2022-10-10T04:14:36;11.40;86.30
40702;DHT22;26387;50.114;8.662;2022-10-10T04:17:01;11.40;86.40
40702;DHT22;26387;50.114;8.662;2022-10-10T04:19:27;11.40;86.50
40702;DHT22;26387;50.114;8.662;2022-10-10T04:21:52;11.30;86.50
40702;DHT22;26387;50.114;8.662;2022-10-10T04:24:18;11.30;86.60
40702;DHT22;26387;50.114;8.662;2022-10-10T04:26:43;11.30;86.80
40702;DHT22;26387;50.114;8.662;2022-10-10T04:29:09;11.30;86.70
40702;DHT22;26387;50.114;8.662;2022-10-10T04:31:34;11.30;86.90
40702;DHT22;26387;50.114;8.662;2022-10-10T04:34:00;11.30;86.90
40702;DHT22;26387;50.114;8.662;2022-10-10T04:36:25;11.20;86.90
40702;DHT22;26387;50.114;8.662;2022-10-10T04:38:51;11.30;87.10
40702;DHT22;26387;50.114;8.662;2022-10-10T04:41:16;11.20;87.30
40702;DHT22;26387;50.114;8.662;2022-10-10T04:43:42;11.20;87.30
40702;DHT22;26387;50.114;8.662;2022-10-10T04:46:07;11.20;87.30
40702;DHT22;26387;50.114;8.662;2022-10-10T04:48:33;11.20;87.30
40702;DHT22;26387;50.114;8.662;2022-10-10T04:50:58;11.20;87.40
40702;DHT22;26387;50.114;8.662;2022-10-10T04:53:24;11.20;87.40
40702;DHT22;26387;50.114;8.662;2022-10-10T04:55:50;11.20;87.60
40702;DHT22;26387;50.114;8.662;2022-10-10T04:58:16;11.20;87.60
40702;DHT22;26387;50.114;8.662;2022-10-10T05:00:41;11.20;87.60
40702;DHT22;26387;50.114;8.662;2022-10-10T05:03:07;11.20;87.60
40702;DHT22;26387;50.114;8.662;2022-10-10T05:05:33;11.20;87.80
40702;DHT22;26387;50.114;8.662;2022-10-10T05:07:59;11.20;87.90
40702;DHT22;26387;50.114;8.662;2022-10-10T05:10:24;11.20;88.00
40702;DHT22;26387;50.114;8.662;2022-10-10T05:12:50;11.20;88.00
40702;DHT22;26387;50.114;8.662;2022-10-10T05:15:16;11.20;88.10
40702;DHT22;26387;50.114;8.662;2022-10-10T05:17:43;11.10;88.00
40702;DHT22;26387;50.114;8.662;2022-10-10T05:20:09;11.20;88.20
40702;DHT22;26387;50.114;8.662;2022-10-10T05:22:34;11.20;88.30
40702;DHT22;26387;50.114;8.662;2022-10-10T05:25:00;11.20;88.40
40702;DHT22;26387;50.114;8.662;2022-10-10T05:27:26;11.10;88.30
40702;DHT22;26387;50.114;8.662;2022-10-10T05:29:52;11.10;88.40
40702;DHT22;26387;50.114;8.662;2022-10-10T05:32:17;11.20;88.40
40702;DHT22;26387;50.114;8.662;2022-10-10T05:34:43;11.10;88.40
40702;DHT22;26387;50.114;8.662;2022-10-10T05:37:08;11.10;88.50
40702;DHT22;26387;50.114;8.662;2022-10-10T05:39:34;11.00;89.30
40702;DHT22;26387;50.114;8.662;2022-10-10T05:41:59;10.90;90.00
40702;DHT22;26387;50.114;8.662;2022-10-10T05:44:25;11.00;90.00
40702;DHT22;26387;50.114;8.662;2022-10-10T05:46:51;11.00;89.70
40702;DHT22;26387;50.114;8.662;2022-10-10T05:49:16;11.10;89.60
40702;DHT22;26387;50.114;8.662;2022-10-10T05:51:42;11.10;89.50
40702;DHT22;26387;50.114;8.662;2022-10-10T05:54:07;11.10;89.40
40702;DHT22;26387;50.114;8.662;2022-10-10T05:56:34;11.20;89.30
40702;DHT22;26387;50.114;8.662;2022-10-10T05:58:59;11.20;89.30
40702;DHT22;26387;50.114;8.662;2022-10-10T06:01:25;11.20;89.20
40702;DHT22;26387;50.114;8.662;2022-10-10T06:03:50;11.20;89.20
40702;DHT22;26387;50.114;8.662;2022-10-10T06:06:23;11.20;89.30
40702;DHT22;26387;50.114;8.662;2022-10-10T06:08:48;11.30;89.20
40702;DHT22;26387;50.114;8.662;2022-10-10T06:11:14;11.30;89.40
40702;DHT22;26387;50.114;8.662;2022-10-10T06:13:41;11.30;89.20
40702;DHT22;26387;50.114;8.662;2022-10-10T06:16:07;11.40;89.20
40702;DHT22;26387;50.114;8.662;2022-10-10T06:18:32;11.30;89.00
40702;DHT22;26387;50.114;8.662;2022-10-10T06:21:05;11.40;89.10
40702;DHT22;26387;50.114;8.662;2022-10-10T06:23:30;11.40;89.00
40702;DHT22;26387;50.114;8.662;2022-10-10T06:25:56;11.40;89.10
40702;DHT22;26387;50.114;8.662;2022-10-10T06:28:22;11.40;89.10
40702;DHT22;26387;50.114;8.662;2022-10-10T06:30:47;11.40;88.90
40702;DHT22;26387;50.114;8.662;2022-10-10T06:33:14;11.40;88.90
40702;DHT22;26387;50.114;8.662;2022-10-10T06:35:43;11.50;89.10
40702;DHT22;26387;50.114;8.662;2022-10-10T06:38:09;11.50;89.10
40702;DHT22;26387;50.114;8.662;2022-10-10T06:40:35;11.50;89.20
40702;DHT22;26387;50.114;8.662;2022-10-10T06:43:00;11.50;89.60
40702;DHT22;26387;50.114;8.662;2022-10-10T06:45:26;11.60;90.00
40702;DHT22;26387;50.114;8.662;2022-10-10T06:47:51;11.70;89.60
40702;DHT22;26387;50.114;8.662;2022-10-10T06:50:17;11.70;89.60
40702;DHT22;26387;50.114;8.662;2022-10-10T06:52:42;11.70;89.70
40702;DHT22;26387;50.114;8.662;2022-10-10T06:55:08;11.70;89.70
40702;DHT22;26387;50.114;8.662;2022-10-10T06:57:33;11.80;89.70
40702;DHT22;26387;50.114;8.662;2022-10-10T06:59:59;11.90;89.60
40702;DHT22;26387;50.114;8.662;2022-10-10T07:02:24;11.90;89.20
40702;DHT22;26387;50.114;8.662;2022-10-10T07:04:51;12.00;89.00
40702;DHT22;26387;50.114;8.662;2022-10-10T07:07:16;12.00;89.40
40702;DHT22;26387;50.114;8.662;2022-10-10T07:09:42;12.00;89.20
40702;DHT22;26387;50.114;8.662;2022-10-10T07:12:07;12.10;89.00
40702;DHT22;26387;50.114;8.662;2022-10-10T07:14:33;12.20;89.30
40702;DHT22;26387;50.114;8.662;2022-10-10T07:16:58;12.20;89.00
40702;DHT22;26387;50.114;8.662;2022-10-10T07:19:24;12.30;88.70
40702;DHT22;26387;50.114;8.662;2022-10-10T07:21:50;12.30;88.60
40702;DHT22;26387;50.114;8.662;2022-10-10T07:24:15;12.40;88.50
40702;DHT22;26387;50.114;8.662;2022-10-10T07:26:41;12.40;88.20
40702;DHT22;26387;50.114;8.662;2022-10-10T07:29:06;12.50;88.20
40702;DHT22;26387;50.114;8.662;2022-10-10T07:31:32;12.50;88.00
40702;DHT22;26387;50.114;8.662;2022-10-10T07:33:57;12.60;88.10
40702;DHT22;26387;50.114;8.662;2022-10-10T07:36:23;12.60;87.60
40702;DHT22;26387;50.114;8.662;2022-10-10T07:38:49;12.70;87.20
40702;DHT22;26387;50.114;8.662;2022-10-10T07:41:16;12.70;86.90
40702;DHT22;26387;50.114;8.662;2022-10-10T07:43:41;12.80;87.00
40702;DHT22;26387;50.114;8.662;2022-10-10T07:58:16;13.20;84.70
40702;DHT22;26387;50.114;8.662;2022-10-10T08:00:42;13.50;84.70
40702;DHT22;26387;50.114;8.662;2022-10-10T08:03:08;13.60;84.30
40702;DHT22;26387;50.114;8.662;2022-10-10T08:05:34;13.70;83.80
40702;DHT22;26387;50.114;8.662;2022-10-10T08:32:21;13.70;83.80
40702;DHT22;26387;50.114;8.662;2022-10-10T08:34:47;14.70;81.70
40702;DHT22;26387;50.114;8.662;2022-10-10T08:39:38;14.80;80.90
40702;DHT22;26387;50.114;8.662;2022-10-10T08:42:04;14.90;80.80
40702;DHT22;26387;50.114;8.662;2022-10-10T08:44:38;14.90;80.60
40702;DHT22;26387;50.114;8.662;2022-10-10T08:47:05;15.00;80.60
40702;DHT22;26387;50.114;8.662;2022-10-10T08:52:13;15.10;80.10
40702;DHT22;26387;50.114;8.662;2022-10-10T08:54:39;15.10;80.50
40702;DHT22;26387;50.114;8.662;2022-10-10T08:57:08;15.00;80.70
40702;DHT22;26387;50.114;8.662;2022-10-10T08:59:37;15.00;81.60
40702;DHT22;26387;50.114;8.662;2022-10-10T09:02:15;14.90;81.70
40702;DHT22;26387;50.114;8.662;2022-10-10T09:04:43;14.80;82.20
40702;DHT22;26387;50.114;8.662;2022-10-10T09:10:25;14.90;82.70
40702;DHT22;26387;50.114;8.662;2022-10-10T09:12:59;14.90;83.10
40702;DHT22;26387;50.114;8.662;2022-10-10T12:44:48;15.10;83.30
40702;DHT22;26387;50.114;8.662;2022-10-10T12:49:49;22.70;70.00
40702;DHT22;26387;50.114;8.662;2022-10-10T12:52:49;22.90;69.20
40702;DHT22;26387;50.114;8.662;2022-10-10T14:05:38;33.50;43.60
40702;DHT22;26387;50.114;8.662;2022-10-10T14:08:11;35.00;42.00
40702;DHT22;26387;50.114;8.662;2022-10-10T14:10:38;34.50;41.90
40702;DHT22;26387;50.114;8.662;2022-10-10T14:17:55;33.20;42.70
40702;DHT22;26387;50.114;8.662;2022-10-10T14:20:20;30.00;46.90
40702;DHT22;26387;50.114;8.662;2022-10-10T14:27:38;29.10;48.20
40702;DHT22;26387;50.114;8.662;2022-10-10T14:37:25;27.50;51.30
40702;DHT22;26387;50.114;8.662;2022-10-10T14:42:18;25.50;54.70
40702;DHT22;26387;50.114;8.662;2022-10-10T14:47:16;24.70;56.50
40702;DHT22;26387;50.114;8.662;2022-10-10T14:52:08;24.10;59.00
40702;DHT22;26387;50.114;8.662;2022-10-10T14:54:33;23.50;60.70
40702;DHT22;26387;50.114;8.662;2022-10-10T14:56:59;23.40;61.20
40702;DHT22;26387;50.114;8.662;2022-10-10T14:59:24;23.30;61.70
40702;DHT22;26387;50.114;8.662;2022-10-10T15:01:49;23.20;62.20
40702;DHT22;26387;50.114;8.662;2022-10-10T15:04:15;23.10;62.30
40702;DHT22;26387;50.114;8.662;2022-10-10T15:06:40;22.90;63.20
40702;DHT22;26387;50.114;8.662;2022-10-10T15:09:06;22.80;63.80
40702;DHT22;26387;50.114;8.662;2022-10-10T15:13:58;22.70;64.60
40702;DHT22;26387;50.114;8.662;2022-10-10T15:16:23;22.40;66.00
40702;DHT22;26387;50.114;8.662;2022-10-10T15:18:49;22.30;66.50
40702;DHT22;26387;50.114;8.662;2022-10-10T15:21:14;22.30;66.50
40702;DHT22;26387;50.114;8.662;2022-10-10T15:26:06;22.20;67.10
40702;DHT22;26387;50.114;8.662;2022-10-10T15:28:32;22.00;67.70
40702;DHT22;26387;50.114;8.662;2022-10-10T15:30:57;21.90;67.90
40702;DHT22;26387;50.114;8.662;2022-10-10T15:33:26;21.90;68.60
40702;DHT22;26387;50.114;8.662;2022-10-10T15:36:02;21.80;69.10
40702;DHT22;26387;50.114;8.662;2022-10-10T16:10:11;21.40;71.60
40702;DHT22;26387;50.114;8.662;2022-10-10T16:12:36;21.40;72.00
40702;DHT22;26387;50.114;8.662;2022-10-10T16:15:01;21.30;73.20
40702;DHT22;26387;50.114;8.662;2022-10-10T16:17:27;21.20;73.50
40702;DHT22;26387;50.114;8.662;2022-10-10T16:19:52;21.10;74.20
40702;DHT22;26387;50.114;8.662;2022-10-10T16:22:18;21.00;74.70
40702;DHT22;26387;50.114;8.662;2022-10-10T16:24:44;20.80;75.50
40702;DHT22;26387;50.114;8.662;2022-10-10T16:27:09;20.70;76.20
40702;DHT22;26387;50.114;8.662;2022-10-10T16:29:35;20.60;76.20
40702;DHT22;26387;50.114;8.662;2022-10-10T16:32:00;20.50;77.30
40702;DHT22;26387;50.114;8.662;2022-10-10T16:34:26;20.40;77.80
40702;DHT22;26387;50.114;8.662;2022-10-10T16:39:17;20.30;78.20
40702;DHT22;26387;50.114;8.662;2022-10-10T16:41:42;20.20;79.30
40702;DHT22;26387;50.114;8.662;2022-10-10T16:44:08;20.10;79.70
40702;DHT22;26387;50.114;8.662;2022-10-10T16:46:34;20.00;80.20
40702;DHT22;26387;50.114;8.662;2022-10-10T16:48:59;19.90;80.50
40702;DHT22;26387;50.114;8.662;2022-10-10T16:51:25;19.80;81.00
40702;DHT22;26387;50.114;8.662;2022-10-10T16:53:52;19.80;81.40
40702;DHT22;26387;50.114;8.662;2022-10-10T16:58:44;19.60;81.90
40702;DHT22;26387;50.114;8.662;2022-10-10T17:01:14;19.60;82.90
40702;DHT22;26387;50.114;8.662;2022-10-10T17:03:40;19.60;83.40
40702;DHT22;26387;50.114;8.662;2022-10-10T17:06:06;19.50;83.90
40702;DHT22;26387;50.114;8.662;2022-10-10T17:08:33;19.40;83.90
40702;DHT22;26387;50.114;8.662;2022-10-10T17:10:59;19.40;84.30
40702;DHT22;26387;50.114;8.662;2022-10-10T17:13:24;19.40;84.60
40702;DHT22;26387;50.114;8.662;2022-10-10T17:15:50;19.30;84.80
40702;DHT22;26387;50.114;8.662;2022-10-10T17:18:16;19.30;84.90
40702;DHT22;26387;50.114;8.662;2022-10-10T17:20:42;19.30;85.10
40702;DHT22;26387;50.114;8.662;2022-10-10T17:23:07;19.30;85.30
40702;DHT22;26387;50.114;8.662;2022-10-10T17:25:33;19.20;85.30
40702;DHT22;26387;50.114;8.662;2022-10-10T17:27:58;19.20;85.70
40702;DHT22;26387;50.114;8.662;2022-10-10T17:30:24;19.20;85.80
40702;DHT22;26387;50.114;8.662;2022-10-10T17:32:49;19.20;86.00
40702;DHT22;26387;50.114;8.662;2022-10-10T17:35:15;19.20;86.20
40702;DHT22;26387;50.114;8.662;2022-10-10T17:37:40;19.20;86.40
40702;DHT22;26387;50.114;8.662;2022-10-10T17:40:06;19.20;86.50
40702;DHT22;26387;50.114;8.662;2022-10-10T17:42:32;19.20;86.60
40702;DHT22;26387;50.114;8.662;2022-10-10T17:44:58;19.20;86.70
40702;DHT22;26387;50.114;8.662;2022-10-10T17:47:24;19.20;86.90
40702;DHT22;26387;50.114;8.662;2022-10-10T17:49:49;19.20;87.00
40702;DHT22;26387;50.114;8.662;2022-10-10T17:52:15;19.20;86.90
40702;DHT22;26387;50.114;8.662;2022-10-10T17:54:41;19.20;86.40
40702;DHT22;26387;50.114;8.662;2022-10-10T17:57:06;19.20;86.40
40702;DHT22;26387;50.114;8.662;2022-10-10T17:59:34;19.20;87.10
40702;DHT22;26387;50.114;8.662;2022-10-10T18:02:00;19.20;87.60
40702;DHT22;26387;50.114;8.662;2022-10-10T18:04:25;19.20;89.00
40702;DHT22;26387;50.114;8.662;2022-10-10T18:06:51;19.20;90.20
40702;DHT22;26387;50.114;8.662;2022-10-10T18:09:16;19.20;90.50
40702;DHT22;26387;50.114;8.662;2022-10-10T18:11:42;19.10;91.00
40702;DHT22;26387;50.114;8.662;2022-10-10T18:14:07;19.10;91.40
40702;DHT22;26387;50.114;8.662;2022-10-10T18:16:33;19.00;92.00
40702;DHT22;26387;50.114;8.662;2022-10-10T18:18:58;18.90;92.50
40702;DHT22;26387;50.114;8.662;2022-10-10T18:21:24;18.90;92.60
40702;DHT22;26387;50.114;8.662;2022-10-10T18:23:53;18.90;92.70
40702;DHT22;26387;50.114;8.662;2022-10-10T18:26:23;18.90;93.60
40702;DHT22;26387;50.114;8.662;2022-10-10T18:28:49;18.80;93.60
40702;DHT22;26387;50.114;8.662;2022-10-10T18:31:17;18.80;93.90
40702;DHT22;26387;50.114;8.662;2022-10-10T18:33:44;18.80;94.00
40702;DHT22;26387;50.114;8.662;2022-10-10T18:36:10;18.80;94.10
40702;DHT22;26387;50.114;8.662;2022-10-10T18:38:36;18.80;94.00
40702;DHT22;26387;50.114;8.662;2022-10-10T18:41:09;18.80;94.00
40702;DHT22;26387;50.114;8.662;2022-10-10T18:43:35;18.80;94.40
40702;DHT22;26387;50.114;8.662;2022-10-10T18:46:01;18.80;94.30
40702;DHT22;26387;50.114;8.662;2022-10-10T18:48:26;18.80;94.40
40702;DHT22;26387;50.114;8.662;2022-10-10T18:50:58;18.80;94.50
40702;DHT22;26387;50.114;8.662;2022-10-10T18:53:23;18.80;94.60
40702;DHT22;26387;50.114;8.662;2022-10-10T18:55:58;18.70;94.80
40702;DHT22;26387;50.114;8.662;2022-10-10T18:58:29;18.80;94.80
40702;DHT22;26387;50.114;8.662;2022-10-10T19:00:58;18.70;95.30
40702;DHT22;26387;50.114;8.662;2022-10-10T19:03:24;18.70;95.40
40702;DHT22;26387;50.114;8.662;2022-10-10T19:05:50;18.70;95.10
40702;DHT22;26387;50.114;8.662;2022-10-10T19:08:15;18.70;95.80
40702;DHT22;26387;50.114;8.662;2022-10-10T19:10:44;18.60;95.20
40702;DHT22;26387;50.114;8.662;2022-10-10T19:13:10;18.60;95.40
40702;DHT22;26387;50.114;8.662;2022-10-10T19:15:36;18.60;95.70
40702;DHT22;26387;50.114;8.662;2022-10-10T19:18:01;18.60;95.50
40702;DHT22;26387;50.114;8.662;2022-10-10T19:20:27;18.60;94.50
40702;DHT22;26387;50.114;8.662;2022-10-10T19:22:52;18.60;94.50
40702;DHT22;26387;50.114;8.662;2022-10-10T19:25:18;18.60;94.60
40702;DHT22;26387;50.114;8.662;2022-10-10T19:27:43;18.50;94.40
40702;DHT22;26387;50.114;8.662;2022-10-10T19:30:09;18.50;99.10
40702;DHT22;26387;50.114;8.662;2022-10-10T19:32:34;18.40;94.30
40702;DHT22;26387;50.114;8.662;2022-10-10T19:35:00;18.40;94.20
40702;DHT22;26387;50.114;8.662;2022-10-10T19:37:25;18.30;94.10
40702;DHT22;26387;50.114;8.662;2022-10-10T19:39:51;18.40;95.50
40702;DHT22;26387;50.114;8.662;2022-10-10T19:42:16;18.30;95.40
40702;DHT22;26387;50.114;8.662;2022-10-10T19:44:42;18.30;95.50
40702;DHT22;26387;50.114;8.662;2022-10-10T19:47:08;18.30;96.20
40702;DHT22;26387;50.114;8.662;2022-10-10T19:49:34;18.30;96.10
40702;DHT22;26387;50.114;8.662;2022-10-10T19:51:59;18.30;96.70
40702;DHT22;26387;50.114;8.662;2022-10-10T19:54:25;18.30;97.20
40702;DHT22;26387;50.114;8.662;2022-10-10T19:56:50;18.20;97.10
40702;DHT22;26387;50.114;8.662;2022-10-10T19:59:16;18.20;96.90
40702;DHT22;26387;50.114;8.662;2022-10-10T20:01:42;18.20;96.10
40702;DHT22;26387;50.114;8.662;2022-10-10T20:04:07;18.20;96.80
40702;DHT22;26387;50.114;8.662;2022-10-10T20:06:33;18.20;97.20
40702;DHT22;26387;50.114;8.662;2022-10-10T20:08:58;18.10;97.10
40702;DHT22;26387;50.114;8.662;2022-10-10T20:11:24;18.10;97.20
40702;DHT22;26387;50.114;8.662;2022-10-10T20:13:50;18.10;96.90
40702;DHT22;26387;50.114;8.662;2022-10-10T20:16:18;18.20;96.90
40702;DHT22;26387;50.114;8.662;2022-10-10T20:18:43;18.20;96.40
40702;DHT22;26387;50.114;8.662;2022-10-10T20:21:11;18.10;97.10
40702;DHT22;26387;50.114;8.662;2022-10-10T20:23:37;18.10;97.10
40702;DHT22;26387;50.114;8.662;2022-10-10T20:26:06;18.10;97.00
40702;DHT22;26387;50.114;8.662;2022-10-10T20:28:32;18.10;96.60
40702;DHT22;26387;50.114;8.662;2022-10-10T20:30:57;18.10;96.00
40702;DHT22;26387;50.114;8.662;2022-10-10T20:33:23;18.10;95.50
40702;DHT22;26387;50.114;8.662;2022-10-10T20:35:48;18.10;95.70
40702;DHT22;26387;50.114;8.662;2022-10-10T20:38:14;18.10;95.30
40702;DHT22;26387;50.114;8.662;2022-10-10T20:40:41;18.10;94.80
40702;DHT22;26387;50.114;8.662;2022-10-10T20:43:06;18.10;94.60
40702;DHT22;26387;50.114;8.662;2022-10-10T20:45:35;18.10;95.00
40702;DHT22;26387;50.114;8.662;2022-10-10T20:48:01;18.10;94.70
40702;DHT22;26387;50.114;8.662;2022-10-10T20:50:27;18.10;95.10
40702;DHT22;26387;50.114;8.662;2022-10-10T20:52:52;18.10;95.10
40702;DHT22;26387;50.114;8.662;2022-10-10T20:55:18;18.10;95.50
40702;DHT22;26387;50.114;8.662;2022-10-10T20:57:43;18.00;95.60
40702;DHT22;26387;50.114;8.662;2022-10-10T21:00:09;18.00;95.80
40702;DHT22;26387;50.114;8.662;2022-10-10T21:02:34;18.00;96.20
40702;DHT22;26387;50.114;8.662;2022-10-10T21:05:00;18.00;96.40
40702;DHT22;26387;50.114;8.662;2022-10-10T21:07:27;17.90;96.50
40702;DHT22;26387;50.114;8.662;2022-10-10T21:09:52;17.90;96.40
40702;DHT22;26387;50.114;8.662;2022-10-10T21:12:18;17.90;96.40
40702;DHT22;26387;50.114;8.662;2022-10-10T21:14:43;18.00;96.20
40702;DHT22;26387;50.114;8.662;2022-10-10T21:17:08;17.90;96.40
40702;DHT22;26387;50.114;8.662;2022-10-10T21:19:34;17.90;96.00
40702;DHT22;26387;50.114;8.662;2022-10-10T21:21:59;17.90;96.10
40702;DHT22;26387;50.114;8.662;2022-10-10T21:24:25;17.90;96.60
40702;DHT22;26387;50.114;8.662;2022-10-10T21:26:50;17.90;96.70
40702;DHT22;26387;50.114;8.662;2022-10-10T21:29:16;17.90;96.60
40702;DHT22;26387;50.114;8.662;2022-10-10T21:31:41;17.80;96.50
40702;DHT22;26387;50.114;8.662;2022-10-10T21:34:08;17.80;96.90
40702;DHT22;26387;50.114;8.662;2022-10-10T21:36:35;17.90;97.00
40702;DHT22;26387;50.114;8.662;2022-10-10T21:39:01;17.90;97.10
40702;DHT22;26387;50.114;8.662;2022-10-10T21:41:27;17.80;96.70
40702;DHT22;26387;50.114;8.662;2022-10-10T21:43:54;17.90;96.60
40702;DHT22;26387;50.114;8.662;2022-10-10T21:46:21;17.80;96.60
40702;DHT22;26387;50.114;8.662;2022-10-10T21:48:48;17.80;96.50
40702;DHT22;26387;50.114;8.662;2022-10-10T21:51:13;17.80;96.40
40702;DHT22;26387;50.114;8.662;2022-10-10T21:53:40;17.80;96.30
40702;DHT22;26387;50.114;8.662;2022-10-10T21:56:06;17.80;96.50
40702;DHT22;26387;50.114;8.662;2022-10-10T21:58:32;17.80;96.90
40702;DHT22;26387;50.114;8.662;2022-10-10T22:00:58;17.70;96.60
40702;DHT22;26387;50.114;8.662;2022-10-10T22:03:24;17.70;96.50
40702;DHT22;26387;50.114;8.662;2022-10-10T22:05:49;17.70;96.70
40702;DHT22;26387;50.114;8.662;2022-10-10T22:08:14;17.70;96.80
40702;DHT22;26387;50.114;8.662;2022-10-10T22:10:40;17.70;97.00
40702;DHT22;26387;50.114;8.662;2022-10-10T22:13:05;17.60;97.10
40702;DHT22;26387;50.114;8.662;2022-10-10T22:15:31;17.60;97.30
40702;DHT22;26387;50.114;8.662;2022-10-10T22:17:56;17.60;97.30
40702;DHT22;26387;50.114;8.662;2022-10-10T22:20:22;17.60;97.10